sensor_id;sensor_type;location;lat;lon;timestamp;P1;durP1;ratioP1;P2;durP2;ratioP2
10481;SDS011;5288;42.334;23.876;2023-06-05T00:00:09;14.27;;;10.73;;
10481;SDS011;5288;42.334;23.876;2023-06-05T00:02:37;12.47;;;11.10;;
10481;SDS011;5288;42.334;23.876;2023-06-05T00:05:04;13.87;;;9.67;;
10481;SDS011;5288;42.334;23.876;2023-06-05T00:07:33;12.97;;;10.97;;
10481;SDS011;5288;42.334;23.876;2023-06-05T00:10:04;11.73;;;10.53;;
10481;SDS011;5288;42.334;23.876;2023-06-05T00:12:32;12.37;;;11.17;;
10481;SDS011;5288;42.334;23.876;2023-06-05T00:14:59;12.20;;;10.77;;
10481;SDS011;5288;42.334;23.876;2023-06-05T00:17:26;12.13;;;10.93;;
10481;SDS011;5288;42.334;23.876;2023-06-05T00:19:55;12.67;;;10.73;;
10481;SDS011;5288;42.334;23.876;2023-06-05T00:22:23;12.23;;;10.77;;
10481;SDS011;5288;42.334;23.876;2023-06-05T00:24:50;12.13;;;10.93;;
10481;SDS011;5288;42.334;23.876;2023-06-05T00:27:19;11.43;;;10.23;;
10481;SDS011;5288;42.334;23.876;2023-06-05T00:29:46;13.30;;;10.97;;
10481;SDS011;5288;42.334;23.876;2023-06-05T00:32:13;12.57;;;11.20;;
10481;SDS011;5288;42.334;23.876;2023-06-05T00:34:40;11.63;;;10.57;;
10481;SDS011;5288;42.334;23.876;2023-06-05T00:37:07;12.40;;;11.20;;
10481;SDS011;5288;42.334;23.876;2023-06-05T00:39:34;12.47;;;11.37;;
10481;SDS011;5288;42.334;23.876;2023-06-05T00:42:01;13.00;;;11.70;;
10481;SDS011;5288;42.334;23.876;2023-06-05T00:44:30;13.20;;;11.83;;
10481;SDS011;5288;42.334;23.876;2023-06-05T00:46:56;13.53;;;12.23;;
10481;SDS011;5288;42.334;23.876;2023-06-05T00:49:24;16.67;;;14.90;;
10481;SDS011;5288;42.334;23.876;2023-06-05T00:51:51;21.77;;;15.57;;
10481;SDS011;5288;42.334;23.876;2023-06-05T00:54:19;17.70;;;15.10;;
10481;SDS011;5288;42.334;23.876;2023-06-05T00:56:47;17.57;;;15.87;;
10481;SDS011;5288;42.334;23.876;2023-06-05T00:59:17;21.13;;;18.27;;
10481;SDS011;5288;42.334;23.876;2023-06-05T01:01:46;18.80;;;16.97;;
10481;SDS011;5288;42.334;23.876;2023-06-05T01:04:13;22.50;;;18.80;;
10481;SDS011;5288;42.334;23.876;2023-06-05T01:06:40;25.60;;;21.50;;
10481;SDS011;5288;42.334;23.876;2023-06-05T01:09:07;24.13;;;21.03;;
10481;SDS011;5288;42.334;23.876;2023-06-05T01:11:37;24.73;;;22.13;;
10481;SDS011;5288;42.334;23.876;2023-06-05T01:14:11;23.93;;;21.37;;
10481;SDS011;5288;42.334;23.876;2023-06-05T01:16:43;22.73;;;20.30;;
10481;SDS011;5288;42.334;23.876;2023-06-05T01:19:14;25.57;;;20.73;;
10481;SDS011;5288;42.334;23.876;2023-06-05T01:21:41;25.33;;;22.63;;
10481;SDS011;5288;42.334;23.876;2023-06-05T01:24:10;25.07;;;22.43;;
10481;SDS011;5288;42.334;23.876;2023-06-05T01:26:41;32.97;;;23.27;;
10481;SDS011;5288;42.334;23.876;2023-06-05T01:29:17;25.07;;;22.47;;
10481;SDS011;5288;42.334;23.876;2023-06-05T01:31:50;27.33;;;23.17;;
10481;SDS011;5288;42.334;23.876;2023-06-05T01:34:21;25.70;;;22.70;;
10481;SDS011;5288;42.334;23.876;2023-06-05T01:36:49;27.43;;;22.47;;
10481;SDS011;5288;42.334;23.876;2023-06-05T01:39:20;30.80;;;22.87;;
10481;SDS011;5288;42.334;23.876;2023-06-05T01:41:49;33.80;;;23.10;;
10481;SDS011;5288;42.334;23.876;2023-06-05T01:44:18;29.20;;;23.57;;
10481;SDS011;5288;42.334;23.876;2023-06-05T01:46:45;26.97;;;22.73;;
10481;SDS011;5288;42.334;23.876;2023-06-05T01:49:12;27.40;;;22.57;;
10481;SDS011;5288;42.334;23.876;2023-06-05T01:51:40;28.27;;;23.07;;
10481;SDS011;5288;42.334;23.876;2023-06-05T01:54:06;26.23;;;22.53;;
10481;SDS011;5288;42.334;23.876;2023-06-05T01:56:35;27.23;;;23.27;;
10481;SDS011;5288;42.334;23.876;2023-06-05T01:59:04;28.17;;;22.97;;
10481;SDS011;5288;42.334;23.876;2023-06-05T02:01:32;24.83;;;21.60;;
10481;SDS011;5288;42.334;23.876;2023-06-05T02:04:00;25.43;;;19.93;;
10481;SDS011;5288;42.334;23.876;2023-06-05T02:06:33;23.67;;;21.00;;
10481;SDS011;5288;42.334;23.876;2023-06-05T02:09:08;26.50;;;22.37;;
10481;SDS011;5288;42.334;23.876;2023-06-05T02:11:39;26.17;;;20.37;;
10481;SDS011;5288;42.334;23.876;2023-06-05T02:14:07;25.53;;;19.87;;
10481;SDS011;5288;42.334;23.876;2023-06-05T02:16:37;25.10;;;20.07;;
10481;SDS011;5288;42.334;23.876;2023-06-05T02:19:05;29.47;;;20.17;;
10481;SDS011;5288;42.334;23.876;2023-06-05T02:21:32;28.10;;;20.70;;
10481;SDS011;5288;42.334;23.876;2023-06-05T02:24:00;21.57;;;18.93;;
10481;SDS011;5288;42.334;23.876;2023-06-05T02:26:28;19.93;;;17.90;;
10481;SDS011;5288;42.334;23.876;2023-06-05T02:28:56;22.60;;;19.57;;
10481;SDS011;5288;42.334;23.876;2023-06-05T02:31:24;20.83;;;17.90;;
10481;SDS011;5288;42.334;23.876;2023-06-05T02:33:54;21.03;;;18.77;;
10481;SDS011;5288;42.334;23.876;2023-06-05T02:36:22;21.87;;;18.63;;
10481;SDS011;5288;42.334;23.876;2023-06-05T02:38:50;22.07;;;18.67;;
10481;SDS011;5288;42.334;23.876;2023-06-05T02:41:17;22.83;;;19.77;;
10481;SDS011;5288;42.334;23.876;2023-06-05T02:43:46;26.97;;;19.97;;
10481;SDS011;5288;42.334;23.876;2023-06-05T02:46:14;28.40;;;20.40;;
10481;SDS011;5288;42.334;23.876;2023-06-05T02:48:41;24.17;;;19.83;;
10481;SDS011;5288;42.334;23.876;2023-06-05T02:51:08;25.80;;;19.60;;
10481;SDS011;5288;42.334;23.876;2023-06-05T02:53:36;25.43;;;18.23;;
10481;SDS011;5288;42.334;23.876;2023-06-05T02:56:03;22.17;;;18.57;;
10481;SDS011;5288;42.334;23.876;2023-06-05T02:58:30;21.20;;;18.90;;
10481;SDS011;5288;42.334;23.876;2023-06-05T03:00:58;26.90;;;20.80;;
10481;SDS011;5288;42.334;23.876;2023-06-05T03:03:28;27.57;;;20.77;;
10481;SDS011;5288;42.334;23.876;2023-06-05T03:05:56;25.13;;;19.50;;
10481;SDS011;5288;42.334;23.876;2023-06-05T03:08:30;23.87;;;18.23;;
10481;SDS011;5288;42.334;23.876;2023-06-05T03:10:58;24.63;;;18.90;;
10481;SDS011;5288;42.334;23.876;2023-06-05T03:13:25;29.47;;;17.90;;
10481;SDS011;5288;42.334;23.876;2023-06-05T03:15:52;21.80;;;18.17;;
10481;SDS011;5288;42.334;23.876;2023-06-05T03:18:22;26.03;;;18.67;;
10481;SDS011;5288;42.334;23.876;2023-06-05T03:20:51;24.53;;;18.13;;
10481;SDS011;5288;42.334;23.876;2023-06-05T03:23:20;34.47;;;19.23;;
10481;SDS011;5288;42.334;23.876;2023-06-05T03:25:48;25.17;;;17.90;;
10481;SDS011;5288;42.334;23.876;2023-06-05T03:28:15;31.50;;;19.60;;
10481;SDS011;5288;42.334;23.876;2023-06-05T03:30:42;23.73;;;17.37;;
10481;SDS011;5288;42.334;23.876;2023-06-05T03:33:10;47.20;;;19.10;;
10481;SDS011;5288;42.334;23.876;2023-06-05T03:35:38;29.23;;;18.23;;
10481;SDS011;5288;42.334;23.876;2023-06-05T03:38:07;33.67;;;18.23;;
10481;SDS011;5288;42.334;23.876;2023-06-05T03:40:35;28.43;;;17.07;;
10481;SDS011;5288;42.334;23.876;2023-06-05T03:43:04;25.93;;;17.10;;
10481;SDS011;5288;42.334;23.876;2023-06-05T03:45:31;42.47;;;19.40;;
10481;SDS011;5288;42.334;23.876;2023-06-05T03:47:59;28.60;;;17.83;;
10481;SDS011;5288;42.334;23.876;2023-06-05T03:50:26;38.20;;;17.07;;
10481;SDS011;5288;42.334;23.876;2023-06-05T03:52:53;29.43;;;17.43;;
10481;SDS011;5288;42.334;23.876;2023-06-05T03:55:30;28.77;;;14.27;;
10481;SDS011;5288;42.334;23.876;2023-06-05T03:58:06;60.80;;;17.23;;
10481;SDS011;5288;42.334;23.876;2023-06-05T04:00:34;143.23;;;22.83;;
10481;SDS011;5288;42.334;23.876;2023-06-05T04:03:01;26.53;;;12.43;;
10481;SDS011;5288;42.334;23.876;2023-06-05T04:05:28;20.37;;;12.27;;
10481;SDS011;5288;42.334;23.876;2023-06-05T04:07:55;25.87;;;12.53;;
10481;SDS011;5288;42.334;23.876;2023-06-05T04:10:22;20.30;;;12.43;;
10481;SDS011;5288;42.334;23.876;2023-06-05T04:12:51;44.13;;;13.17;;
10481;SDS011;5288;42.334;23.876;2023-06-05T04:15:18;23.07;;;11.10;;
10481;SDS011;5288;42.334;23.876;2023-06-05T04:17:45;24.30;;;11.37;;
10481;SDS011;5288;42.334;23.876;2023-06-05T04:20:12;27.90;;;9.90;;
10481;SDS011;5288;42.334;23.876;2023-06-05T04:22:40;30.40;;;10.63;;
10481;SDS011;5288;42.334;23.876;2023-06-05T04:25:07;19.67;;;10.10;;
10481;SDS011;5288;42.334;23.876;2023-06-05T04:27:36;21.23;;;12.27;;
10481;SDS011;5288;42.334;23.876;2023-06-05T04:30:06;21.20;;;15.60;;
10481;SDS011;5288;42.334;23.876;2023-06-05T04:32:34;27.03;;;17.83;;
10481;SDS011;5288;42.334;23.876;2023-06-05T04:35:03;27.63;;;19.97;;
10481;SDS011;5288;42.334;23.876;2023-06-05T04:37:30;24.07;;;19.60;;
10481;SDS011;5288;42.334;23.876;2023-06-05T04:39:57;25.70;;;19.43;;
10481;SDS011;5288;42.334;23.876;2023-06-05T04:42:25;40.73;;;20.63;;
10481;SDS011;5288;42.334;23.876;2023-06-05T04:44:56;32.33;;;19.80;;
10481;SDS011;5288;42.334;23.876;2023-06-05T04:47:25;27.93;;;18.87;;
10481;SDS011;5288;42.334;23.876;2023-06-05T04:49:52;27.07;;;18.03;;
10481;SDS011;5288;42.334;23.876;2023-06-05T04:52:20;26.97;;;16.60;;
10481;SDS011;5288;42.334;23.876;2023-06-05T04:54:48;29.23;;;16.30;;
10481;SDS011;5288;42.334;23.876;2023-06-05T04:57:16;29.87;;;15.93;;
10481;SDS011;5288;42.334;23.876;2023-06-05T04:59:43;28.50;;;15.23;;
10481;SDS011;5288;42.334;23.876;2023-06-05T05:02:11;26.27;;;15.33;;
10481;SDS011;5288;42.334;23.876;2023-06-05T05:04:39;27.70;;;13.47;;
10481;SDS011;5288;42.334;23.876;2023-06-05T05:07:06;25.33;;;14.93;;
10481;SDS011;5288;42.334;23.876;2023-06-05T05:09:38;25.17;;;14.03;;
10481;SDS011;5288;42.334;23.876;2023-06-05T05:12:05;24.77;;;13.77;;
10481;SDS011;5288;42.334;23.876;2023-06-05T05:14:33;25.43;;;13.00;;
10481;SDS011;5288;42.334;23.876;2023-06-05T05:17:00;20.70;;;11.43;;
10481;SDS011;5288;42.334;23.876;2023-06-05T05:19:27;26.93;;;12.70;;
10481;SDS011;5288;42.334;23.876;2023-06-05T05:21:56;28.97;;;14.37;;
10481;SDS011;5288;42.334;23.876;2023-06-05T05:24:24;21.50;;;13.73;;
10481;SDS011;5288;42.334;23.876;2023-06-05T05:26:51;27.93;;;13.73;;
10481;SDS011;5288;42.334;23.876;2023-06-05T05:29:18;22.50;;;13.03;;
10481;SDS011;5288;42.334;23.876;2023-06-05T05:31:45;21.80;;;13.27;;
10481;SDS011;5288;42.334;23.876;2023-06-05T05:34:12;27.43;;;14.10;;
10481;SDS011;5288;42.334;23.876;2023-06-05T05:36:39;21.17;;;14.40;;
10481;SDS011;5288;42.334;23.876;2023-06-05T05:39:07;29.93;;;14.13;;
10481;SDS011;5288;42.334;23.876;2023-06-05T05:41:35;51.20;;;15.83;;
10481;SDS011;5288;42.334;23.876;2023-06-05T05:44:02;22.37;;;13.60;;
10481;SDS011;5288;42.334;23.876;2023-06-05T05:46:29;21.60;;;13.53;;
10481;SDS011;5288;42.334;23.876;2023-06-05T05:48:56;22.03;;;14.07;;
10481;SDS011;5288;42.334;23.876;2023-06-05T05:51:23;18.73;;;13.83;;
10481;SDS011;5288;42.334;23.876;2023-06-05T05:53:49;25.33;;;15.13;;
10481;SDS011;5288;42.334;23.876;2023-06-05T05:56:18;22.10;;;13.87;;
10481;SDS011;5288;42.334;23.876;2023-06-05T05:58:45;19.87;;;13.60;;
10481;SDS011;5288;42.334;23.876;2023-06-05T06:01:12;30.43;;;15.13;;
10481;SDS011;5288;42.334;23.876;2023-06-05T06:03:39;21.10;;;13.43;;
10481;SDS011;5288;42.334;23.876;2023-06-05T06:06:07;19.60;;;12.60;;
10481;SDS011;5288;42.334;23.876;2023-06-05T06:08:35;22.33;;;13.83;;
10481;SDS011;5288;42.334;23.876;2023-06-05T06:11:02;22.53;;;13.07;;
10481;SDS011;5288;42.334;23.876;2023-06-05T06:13:33;25.40;;;13.70;;
10481;SDS011;5288;42.334;23.876;2023-06-05T06:16:00;19.90;;;11.80;;
10481;SDS011;5288;42.334;23.876;2023-06-05T06:18:27;23.30;;;13.93;;
10481;SDS011;5288;42.334;23.876;2023-06-05T06:20:55;17.10;;;12.17;;
10481;SDS011;5288;42.334;23.876;2023-06-05T06:23:23;18.80;;;12.10;;
10481;SDS011;5288;42.334;23.876;2023-06-05T06:25:50;17.00;;;12.33;;
10481;SDS011;5288;42.334;23.876;2023-06-05T06:28:17;25.70;;;13.00;;
10481;SDS011;5288;42.334;23.876;2023-06-05T06:30:46;21.30;;;13.47;;
10481;SDS011;5288;42.334;23.876;2023-06-05T06:33:14;23.37;;;13.70;;
10481;SDS011;5288;42.334;23.876;2023-06-05T06:35:41;21.70;;;12.97;;
10481;SDS011;5288;42.334;23.876;2023-06-05T06:38:08;18.10;;;12.30;;
10481;SDS011;5288;42.334;23.876;2023-06-05T06:40:35;17.43;;;12.37;;
10481;SDS011;5288;42.334;23.876;2023-06-05T06:43:02;18.67;;;12.60;;
10481;SDS011;5288;42.334;23.876;2023-06-05T06:45:29;21.03;;;12.13;;
10481;SDS011;5288;42.334;23.876;2023-06-05T06:47:57;20.53;;;13.03;;
10481;SDS011;5288;42.334;23.876;2023-06-05T06:50:24;22.97;;;12.50;;
10481;SDS011;5288;42.334;23.876;2023-06-05T06:52:52;17.80;;;11.70;;
10481;SDS011;5288;42.334;23.876;2023-06-05T06:55:19;32.00;;;13.63;;
10481;SDS011;5288;42.334;23.876;2023-06-05T06:57:46;27.43;;;12.53;;
10481;SDS011;5288;42.334;23.876;2023-06-05T07:00:13;19.93;;;12.27;;
10481;SDS011;5288;42.334;23.876;2023-06-05T07:02:40;21.63;;;11.80;;
10481;SDS011;5288;42.334;23.876;2023-06-05T07:05:10;24.57;;;11.30;;
10481;SDS011;5288;42.334;23.876;2023-06-05T07:07:37;25.27;;;11.07;;
10481;SDS011;5288;42.334;23.876;2023-06-05T07:10:04;35.20;;;13.30;;
10481;SDS011;5288;42.334;23.876;2023-06-05T07:12:31;23.87;;;11.87;;
10481;SDS011;5288;42.334;23.876;2023-06-05T07:14:59;16.07;;;10.33;;
10481;SDS011;5288;42.334;23.876;2023-06-05T07:17:26;30.73;;;10.90;;
10481;SDS011;5288;42.334;23.876;2023-06-05T07:19:55;18.90;;;9.20;;
10481;SDS011;5288;42.334;23.876;2023-06-05T07:22:23;33.40;;;10.20;;
10481;SDS011;5288;42.334;23.876;2023-06-05T07:24:53;17.20;;;8.67;;
10481;SDS011;5288;42.334;23.876;2023-06-05T07:27:20;15.17;;;8.93;;
10481;SDS011;5288;42.334;23.876;2023-06-05T07:29:48;19.90;;;8.73;;
10481;SDS011;5288;42.334;23.876;2023-06-05T07:32:15;17.27;;;7.77;;
10481;SDS011;5288;42.334;23.876;2023-06-05T07:34:42;21.30;;;9.00;;
10481;SDS011;5288;42.334;23.876;2023-06-05T07:37:09;36.20;;;9.93;;
10481;SDS011;5288;42.334;23.876;2023-06-05T07:39:37;18.00;;;7.40;;
10481;SDS011;5288;42.334;23.876;2023-06-05T07:42:04;31.80;;;9.13;;
10481;SDS011;5288;42.334;23.876;2023-06-05T07:44:32;15.93;;;6.93;;
10481;SDS011;5288;42.334;23.876;2023-06-05T07:46:59;14.53;;;7.60;;
10481;SDS011;5288;42.334;23.876;2023-06-05T07:49:29;13.20;;;6.33;;
10481;SDS011;5288;42.334;23.876;2023-06-05T07:51:57;14.03;;;6.27;;
10481;SDS011;5288;42.334;23.876;2023-06-05T07:54:24;10.93;;;5.80;;
10481;SDS011;5288;42.334;23.876;2023-06-05T07:56:52;11.80;;;5.97;;
10481;SDS011;5288;42.334;23.876;2023-06-05T07:59:22;28.40;;;9.10;;
10481;SDS011;5288;42.334;23.876;2023-06-05T08:01:53;10.23;;;5.50;;
10481;SDS011;5288;42.334;23.876;2023-06-05T08:04:20;9.47;;;4.50;;
10481;SDS011;5288;42.334;23.876;2023-06-05T08:06:50;11.13;;;5.43;;
10481;SDS011;5288;42.334;23.876;2023-06-05T08:09:17;14.70;;;6.10;;
10481;SDS011;5288;42.334;23.876;2023-06-05T08:11:44;9.47;;;6.23;;
10481;SDS011;5288;42.334;23.876;2023-06-05T08:14:12;18.17;;;7.53;;
10481;SDS011;5288;42.334;23.876;2023-06-05T08:16:39;16.40;;;7.57;;
10481;SDS011;5288;42.334;23.876;2023-06-05T08:19:06;11.43;;;7.70;;
10481;SDS011;5288;42.334;23.876;2023-06-05T08:21:33;15.70;;;6.67;;
10481;SDS011;5288;42.334;23.876;2023-06-05T08:24:02;8.17;;;6.67;;
10481;SDS011;5288;42.334;23.876;2023-06-05T08:26:29;7.63;;;6.67;;
10481;SDS011;5288;42.334;23.876;2023-06-05T08:28:56;17.00;;;8.20;;
10481;SDS011;5288;42.334;23.876;2023-06-05T08:31:24;10.17;;;7.17;;
10481;SDS011;5288;42.334;23.876;2023-06-05T08:33:51;9.17;;;7.20;;
10481;SDS011;5288;42.334;23.876;2023-06-05T08:36:18;13.87;;;7.20;;
10481;SDS011;5288;42.334;23.876;2023-06-05T08:38:46;9.70;;;6.10;;
10481;SDS011;5288;42.334;23.876;2023-06-05T08:41:13;9.60;;;6.60;;
10481;SDS011;5288;42.334;23.876;2023-06-05T08:43:41;7.80;;;5.70;;
10481;SDS011;5288;42.334;23.876;2023-06-05T08:46:09;11.00;;;5.90;;
10481;SDS011;5288;42.334;23.876;2023-06-05T08:48:40;8.13;;;5.97;;
10481;SDS011;5288;42.334;23.876;2023-06-05T08:51:09;8.23;;;5.87;;
10481;SDS011;5288;42.334;23.876;2023-06-05T08:53:38;13.10;;;6.50;;
10481;SDS011;5288;42.334;23.876;2023-06-05T08:56:06;7.90;;;6.20;;
10481;SDS011;5288;42.334;23.876;2023-06-05T08:58:34;10.13;;;6.10;;
10481;SDS011;5288;42.334;23.876;2023-06-05T09:01:02;15.90;;;6.60;;
10481;SDS011;5288;42.334;23.876;2023-06-05T09:03:29;11.77;;;6.67;;
10481;SDS011;5288;42.334;23.876;2023-06-05T09:06:00;7.53;;;5.90;;
10481;SDS011;5288;42.334;23.876;2023-06-05T09:08:28;11.73;;;6.63;;
10481;SDS011;5288;42.334;23.876;2023-06-05T09:13:47;7.83;;;6.80;;
10481;SDS011;5288;42.334;23.876;2023-06-05T09:16:14;13.03;;;7.13;;
10481;SDS011;5288;42.334;23.876;2023-06-05T09:18:50;13.00;;;6.87;;
10481;SDS011;5288;42.334;23.876;2023-06-05T09:21:20;14.17;;;7.13;;
10481;SDS011;5288;42.334;23.876;2023-06-05T09:23:54;13.37;;;7.00;;
10481;SDS011;5288;42.334;23.876;2023-06-05T09:26:42;11.30;;;7.00;;
10481;SDS011;5288;42.334;23.876;2023-06-05T09:29:12;10.23;;;7.73;;
10481;SDS011;5288;42.334;23.876;2023-06-05T09:31:40;13.10;;;7.50;;
10481;SDS011;5288;42.334;23.876;2023-06-05T09:34:07;13.17;;;7.30;;
10481;SDS011;5288;42.334;23.876;2023-06-05T09:36:36;11.50;;;7.60;;
10481;SDS011;5288;42.334;23.876;2023-06-05T09:39:14;9.90;;;7.17;;
10481;SDS011;5288;42.334;23.876;2023-06-05T09:41:41;15.53;;;7.90;;
10481;SDS011;5288;42.334;23.876;2023-06-05T09:44:09;15.57;;;8.70;;
10481;SDS011;5288;42.334;23.876;2023-06-05T09:46:42;14.63;;;8.07;;
10481;SDS011;5288;42.334;23.876;2023-06-05T09:49:20;10.70;;;7.00;;
10481;SDS011;5288;42.334;23.876;2023-06-05T09:51:51;14.97;;;7.70;;
10481;SDS011;5288;42.334;23.876;2023-06-05T09:54:19;10.27;;;6.83;;
10481;SDS011;5288;42.334;23.876;2023-06-05T09:56:47;10.63;;;6.97;;
10481;SDS011;5288;42.334;23.876;2023-06-05T09:59:19;9.20;;;6.50;;
10481;SDS011;5288;42.334;23.876;2023-06-05T10:01:49;8.90;;;6.27;;
10481;SDS011;5288;42.334;23.876;2023-06-05T10:04:19;7.17;;;6.23;;
10481;SDS011;5288;42.334;23.876;2023-06-05T10:06:48;9.23;;;6.53;;
10481;SDS011;5288;42.334;23.876;2023-06-05T10:09:18;7.70;;;6.23;;
10481;SDS011;5288;42.334;23.876;2023-06-05T10:11:47;8.87;;;5.90;;
10481;SDS011;5288;42.334;23.876;2023-06-05T10:14:16;21.67;;;8.83;;
10481;SDS011;5288;42.334;23.876;2023-06-05T10:16:43;10.57;;;6.67;;
10481;SDS011;5288;42.334;23.876;2023-06-05T10:19:11;7.47;;;5.73;;
10481;SDS011;5288;42.334;23.876;2023-06-05T10:21:39;7.53;;;6.60;;
10481;SDS011;5288;42.334;23.876;2023-06-05T10:24:09;7.80;;;6.03;;
10481;SDS011;5288;42.334;23.876;2023-06-05T10:26:54;12.47;;;7.17;;
10481;SDS011;5288;42.334;23.876;2023-06-05T10:29:47;6.57;;;5.83;;
10481;SDS011;5288;42.334;23.876;2023-06-05T10:32:36;27.57;;;7.73;;
10481;SDS011;5288;42.334;23.876;2023-06-05T10:35:13;8.13;;;6.73;;
10481;SDS011;5288;42.334;23.876;2023-06-05T10:37:55;8.50;;;6.60;;
10481;SDS011;5288;42.334;23.876;2023-06-05T10:40:32;37.57;;;10.30;;
10481;SDS011;5288;42.334;23.876;2023-06-05T10:45:53;9.73;;;6.33;;
10481;SDS011;5288;42.334;23.876;2023-06-05T10:48:20;11.50;;;5.90;;
10481;SDS011;5288;42.334;23.876;2023-06-05T10:50:47;27.07;;;9.10;;
10481;SDS011;5288;42.334;23.876;2023-06-05T10:59:13;12.63;;;6.50;;
10481;SDS011;5288;42.334;23.876;2023-06-05T11:01:41;9.97;;;6.60;;
10481;SDS011;5288;42.334;23.876;2023-06-05T11:04:08;12.17;;;6.77;;
10481;SDS011;5288;42.334;23.876;2023-06-05T11:06:36;40.27;;;11.73;;
10481;SDS011;5288;42.334;23.876;2023-06-05T11:09:11;9.03;;;6.30;;
10481;SDS011;5288;42.334;23.876;2023-06-05T11:11:54;10.47;;;6.67;;
10481;SDS011;5288;42.334;23.876;2023-06-05T11:14:24;9.43;;;6.13;;
10481;SDS011;5288;42.334;23.876;2023-06-05T11:19:53;7.40;;;6.63;;
10481;SDS011;5288;42.334;23.876;2023-06-05T11:22:20;6.57;;;5.80;;
10481;SDS011;5288;42.334;23.876;2023-06-05T11:25:23;6.90;;;5.33;;
10481;SDS011;5288;42.334;23.876;2023-06-05T11:27:54;7.67;;;5.60;;
10481;SDS011;5288;42.334;23.876;2023-06-05T11:30:23;16.17;;;7.47;;
10481;SDS011;5288;42.334;23.876;2023-06-05T11:32:54;9.67;;;6.60;;
10481;SDS011;5288;42.334;23.876;2023-06-05T11:35:24;12.10;;;7.17;;
10481;SDS011;5288;42.334;23.876;2023-06-05T11:38:06;16.77;;;7.30;;
10481;SDS011;5288;42.334;23.876;2023-06-05T11:40:33;13.77;;;7.77;;
10481;SDS011;5288;42.334;23.876;2023-06-05T11:43:04;12.97;;;8.23;;
10481;SDS011;5288;42.334;23.876;2023-06-05T11:45:33;29.03;;;9.97;;
10481;SDS011;5288;42.334;23.876;2023-06-05T11:48:05;19.90;;;11.07;;
10481;SDS011;5288;42.334;23.876;2023-06-05T11:50:33;13.07;;;7.93;;
10481;SDS011;5288;42.334;23.876;2023-06-05T11:53:03;15.77;;;7.30;;
10481;SDS011;5288;42.334;23.876;2023-06-05T11:55:31;13.03;;;8.43;;
10481;SDS011;5288;42.334;23.876;2023-06-05T11:58:09;8.93;;;7.50;;
10481;SDS011;5288;42.334;23.876;2023-06-05T12:00:37;18.83;;;8.83;;
10481;SDS011;5288;42.334;23.876;2023-06-05T12:03:04;15.57;;;8.63;;
10481;SDS011;5288;42.334;23.876;2023-06-05T12:05:31;28.63;;;9.10;;
10481;SDS011;5288;42.334;23.876;2023-06-05T12:10:50;14.50;;;8.10;;
10481;SDS011;5288;42.334;23.876;2023-06-05T12:13:17;18.03;;;10.93;;
10481;SDS011;5288;42.334;23.876;2023-06-05T12:15:56;13.70;;;10.20;;
10481;SDS011;5288;42.334;23.876;2023-06-05T12:18:30;29.77;;;11.40;;
10481;SDS011;5288;42.334;23.876;2023-06-05T12:20:59;11.27;;;7.60;;
10481;SDS011;5288;42.334;23.876;2023-06-05T12:23:27;11.37;;;7.90;;
10481;SDS011;5288;42.334;23.876;2023-06-05T12:25:58;16.07;;;8.00;;
10481;SDS011;5288;42.334;23.876;2023-06-05T12:28:26;12.83;;;8.13;;
10481;SDS011;5288;42.334;23.876;2023-06-05T12:30:53;22.70;;;9.43;;
10481;SDS011;5288;42.334;23.876;2023-06-05T12:33:21;10.10;;;8.63;;
10481;SDS011;5288;42.334;23.876;2023-06-05T12:36:01;8.97;;;8.07;;
10481;SDS011;5288;42.334;23.876;2023-06-05T12:38:29;11.03;;;8.20;;
10481;SDS011;5288;42.334;23.876;2023-06-05T12:40:56;11.50;;;8.03;;
10481;SDS011;5288;42.334;23.876;2023-06-05T12:43:23;13.07;;;8.40;;
10481;SDS011;5288;42.334;23.876;2023-06-05T12:45:50;13.80;;;8.97;;
10481;SDS011;5288;42.334;23.876;2023-06-05T12:48:18;9.53;;;8.20;;
10481;SDS011;5288;42.334;23.876;2023-06-05T12:50:47;11.20;;;8.03;;
10481;SDS011;5288;42.334;23.876;2023-06-05T12:53:14;8.97;;;8.00;;
10481;SDS011;5288;42.334;23.876;2023-06-05T12:55:41;8.83;;;7.83;;
10481;SDS011;5288;42.334;23.876;2023-06-05T12:58:08;7.80;;;7.03;;
10481;SDS011;5288;42.334;23.876;2023-06-05T13:00:37;15.40;;;8.07;;
10481;SDS011;5288;42.334;23.876;2023-06-05T13:03:03;11.37;;;7.50;;
10481;SDS011;5288;42.334;23.876;2023-06-05T13:05:30;9.50;;;7.03;;
10481;SDS011;5288;42.334;23.876;2023-06-05T13:08:00;11.70;;;7.23;;
10481;SDS011;5288;42.334;23.876;2023-06-05T13:10:28;20.97;;;8.00;;
10481;SDS011;5288;42.334;23.876;2023-06-05T13:12:55;10.87;;;6.93;;
10481;SDS011;5288;42.334;23.876;2023-06-05T13:15:22;7.70;;;6.87;;
10481;SDS011;5288;42.334;23.876;2023-06-05T13:17:48;10.83;;;6.90;;
10481;SDS011;5288;42.334;23.876;2023-06-05T13:20:15;8.50;;;7.60;;
10481;SDS011;5288;42.334;23.876;2023-06-05T13:22:42;7.77;;;6.77;;
10481;SDS011;5288;42.334;23.876;2023-06-05T13:25:11;8.13;;;7.10;;
10481;SDS011;5288;42.334;23.876;2023-06-05T13:27:38;8.73;;;7.73;;
10481;SDS011;5288;42.334;23.876;2023-06-05T13:30:06;7.50;;;6.80;;
10481;SDS011;5288;42.334;23.876;2023-06-05T13:32:34;8.07;;;7.27;;
10481;SDS011;5288;42.334;23.876;2023-06-05T13:35:03;7.90;;;7.03;;
10481;SDS011;5288;42.334;23.876;2023-06-05T13:37:31;10.47;;;7.23;;
10481;SDS011;5288;42.334;23.876;2023-06-05T13:39:58;8.80;;;6.40;;
10481;SDS011;5288;42.334;23.876;2023-06-05T13:42:26;14.47;;;7.27;;
10481;SDS011;5288;42.334;23.876;2023-06-05T13:44:53;8.90;;;7.30;;
10481;SDS011;5288;42.334;23.876;2023-06-05T13:47:21;11.43;;;7.23;;
10481;SDS011;5288;42.334;23.876;2023-06-05T13:49:47;13.07;;;7.10;;
10481;SDS011;5288;42.334;23.876;2023-06-05T13:52:14;9.70;;;6.53;;
10481;SDS011;5288;42.334;23.876;2023-06-05T13:54:41;8.00;;;7.20;;
10481;SDS011;5288;42.334;23.876;2023-06-05T13:57:08;8.83;;;7.30;;
10481;SDS011;5288;42.334;23.876;2023-06-05T13:59:38;8.17;;;7.40;;
10481;SDS011;5288;42.334;23.876;2023-06-05T14:02:06;12.87;;;8.40;;
10481;SDS011;5288;42.334;23.876;2023-06-05T14:04:33;9.23;;;8.30;;
10481;SDS011;5288;42.334;23.876;2023-06-05T14:07:00;9.33;;;8.30;;
10481;SDS011;5288;42.334;23.876;2023-06-05T14:09:27;23.10;;;9.93;;
10481;SDS011;5288;42.334;23.876;2023-06-05T14:11:54;13.67;;;8.13;;
10481;SDS011;5288;42.334;23.876;2023-06-05T14:14:21;13.30;;;9.63;;
10481;SDS011;5288;42.334;23.876;2023-06-05T14:16:50;14.87;;;7.93;;
10481;SDS011;5288;42.334;23.876;2023-06-05T14:19:17;12.00;;;8.43;;
10481;SDS011;5288;42.334;23.876;2023-06-05T14:21:44;12.87;;;9.33;;
10481;SDS011;5288;42.334;23.876;2023-06-05T14:24:11;10.83;;;7.83;;
10481;SDS011;5288;42.334;23.876;2023-06-05T14:26:39;10.83;;;8.60;;
10481;SDS011;5288;42.334;23.876;2023-06-05T14:29:06;8.70;;;7.50;;
10481;SDS011;5288;42.334;23.876;2023-06-05T14:31:33;15.50;;;8.43;;
10481;SDS011;5288;42.334;23.876;2023-06-05T14:34:01;8.73;;;7.83;;
10481;SDS011;5288;42.334;23.876;2023-06-05T14:36:28;10.53;;;8.23;;
10481;SDS011;5288;42.334;23.876;2023-06-05T14:38:55;11.83;;;8.33;;
10481;SDS011;5288;42.334;23.876;2023-06-05T14:41:23;11.40;;;8.73;;
10481;SDS011;5288;42.334;23.876;2023-06-05T14:43:50;10.70;;;7.97;;
10481;SDS011;5288;42.334;23.876;2023-06-05T14:46:17;13.40;;;8.90;;
10481;SDS011;5288;42.334;23.876;2023-06-05T14:48:44;11.30;;;8.10;;
10481;SDS011;5288;42.334;23.876;2023-06-05T14:51:12;9.93;;;7.17;;
10481;SDS011;5288;42.334;23.876;2023-06-05T14:53:39;8.30;;;7.50;;
10481;SDS011;5288;42.334;23.876;2023-06-05T14:56:06;9.07;;;7.97;;